Time;durP1;ratioP1;P1;durP2;ratioP2;P2;SDS_P1;SDS_P2;PMS_P1;PMS_P2;Temp;Humidity;BMP_temperature;BMP_pressure;BME280_temperature;BME280_humidity;BME280_pressure;Samples;Min_cycle;Max_cycle;Signal;HPM_P1;HPM_P2
2023/07/13 00:01:40;;;;;;;4.47;4.07;;;14.50;99.90;13.90;99959;;;;565061;250;24189;-81
2023/07/13 00:04:08;;;;;;;7.83;3.73;;;14.50;99.90;13.90;99960;;;;554895;255;24170;-78
2023/07/13 00:06:36;;;;;;;5.20;3.93;;;14.50;99.90;13.90;99965;;;;565255;250;24216;-80
2023/07/13 00:09:06;;;;;;;5.37;3.90;;;14.60;99.90;13.90;99979;;;;554914;255;24121;-79
2023/07/13 00:11:34;;;;;;;8.10;4.00;;;14.60;99.90;13.90;99979;;;;565249;250;24157;-79
2023/07/13 00:14:02;;;;;;;5.13;4.07;;;14.60;99.90;14.00;99976;;;;554963;255;24140;-79
2023/07/13 00:16:29;;;;;;;9.20;4.27;;;14.60;99.90;14.00;99973;;;;565387;250;24158;-81
2023/07/13 00:19:00;;;;;;;9.00;4.43;;;14.60;99.90;14.10;99979;;;;555032;255;24217;-80
2023/07/13 00:21:25;;;;;;;5.37;4.10;;;14.70;99.90;14.10;99989;;;;564985;250;24125;-81
2023/07/13 00:23:53;;;;;;;6.87;4.83;;;14.70;99.90;14.10;99975;;;;554347;255;24232;-80
2023/07/13 00:26:25;;;;;;;5.63;4.00;;;14.70;99.90;14.10;99967;;;;564654;250;24176;-81
2023/07/13 00:28:49;;;;;;;4.80;4.30;;;14.70;99.90;14.10;99959;;;;554103;255;24181;-79
2023/07/13 00:31:17;;;;;;;10.30;4.20;;;14.70;99.90;14.20;99952;;;;564692;250;24128;-80
2023/07/13 00:33:46;;;;;;;5.50;4.30;;;14.80;99.90;14.20;99938;;;;554780;255;24114;-80
2023/07/13 00:36:14;;;;;;;5.67;4.13;;;14.80;99.90;14.10;99941;;;;565285;250;24129;-80
2023/07/13 00:38:42;;;;;;;6.77;4.03;;;14.80;99.90;14.10;99940;;;;555002;255;24155;-80
2023/07/13 00:41:10;;;;;;;4.40;4.00;;;14.80;99.90;14.10;99940;;;;564670;250;24133;-80
2023/07/13 00:43:38;;;;;;;5.20;3.80;;;14.70;99.90;14.10;99940;;;;555506;255;24166;-81
2023/07/13 00:46:18;;;;;;;5.60;4.30;;;14.70;99.90;14.00;99936;;;;566023;250;24166;-80
2023/07/13 00:48:45;;;;;;;5.40;3.83;;;14.70;99.90;14.00;99931;;;;561359;255;24230;-82
2023/07/13 00:51:16;;;;;;;6.70;4.07;;;14.60;99.90;14.00;99927;;;;565027;250;24169;-81
2023/07/13 00:53:41;;;;;;;6.43;4.43;;;14.60;99.90;14.00;99934;;;;554403;255;24160;-82
2023/07/13 00:56:12;;;;;;;8.00;3.83;;;14.60;99.90;14.00;99944;;;;565140;249;24124;-81
2023/07/13 00:58:37;;;;;;;7.13;4.73;;;14.60;99.90;14.00;99949;;;;555147;254;24122;-81
2023/07/13 01:01:06;;;;;;;10.27;4.50;;;14.60;99.90;14.00;99960;;;;565929;250;24171;-81
2023/07/13 01:03:38;;;;;;;8.80;4.77;;;14.60;99.90;14.00;99968;;;;555368;251;24162;-80
2023/07/13 01:06:02;;;;;;;6.20;4.77;;;14.60;99.90;13.90;99970;;;;564351;250;24217;-82
2023/07/13 01:08:30;;;;;;;4.80;4.40;;;14.60;99.90;13.90;99969;;;;555110;254;24157;-80
2023/07/13 01:10:58;;;;;;;4.53;4.13;;;14.60;99.90;13.90;99979;;;;565495;250;24139;-83
2023/07/13 01:13:26;;;;;;;7.23;5.00;;;14.50;99.90;13.90;99979;;;;555142;254;24178;-82
2023/07/13 01:15:54;;;;;;;12.40;4.83;;;14.50;99.90;14.00;99984;;;;565237;249;24165;-81
2023/07/13 01:18:24;;;;;;;9.20;4.93;;;14.60;99.90;14.00;99987;;;;554683;255;24167;-83
2023/07/13 01:21:02;;;;;;;6.63;4.53;;;14.60;99.90;14.10;99986;;;;565126;250;24107;-82
2023/07/13 01:23:30;;;;;;;7.30;4.80;;;14.70;99.90;14.10;99984;;;;573962;243;24103;-83
2023/07/13 01:25:58;;;;;;;11.20;5.10;;;14.70;99.90;14.00;99983;;;;562492;251;24185;-84
2023/07/13 01:28:29;;;;;;;7.03;5.10;;;14.70;99.90;14.00;99975;;;;555056;254;24152;-81
2023/07/13 01:30:54;;;;;;;7.17;5.00;;;14.60;99.90;13.90;99986;;;;570842;251;24127;-81
2023/07/13 01:33:25;;;;;;;5.50;5.00;;;14.50;99.90;13.80;99979;;;;554381;255;24206;-80
2023/07/13 01:35:50;;;;;;;4.50;4.10;;;14.50;99.90;13.70;99990;;;;564624;250;24184;-80
2023/07/13 01:38:18;;;;;;;9.47;5.10;;;14.30;99.90;13.70;99982;;;;554685;255;24186;-82
2023/07/13 01:40:46;;;;;;;10.77;5.53;;;14.30;99.90;13.60;99986;;;;564933;250;24192;-81
2023/07/13 01:43:17;;;;;;;7.37;4.33;;;14.20;99.90;13.60;99988;;;;554684;255;24167;-80
2023/07/13 01:45:43;;;;;;;8.03;4.43;;;14.20;99.90;13.60;99992;;;;564795;250;24117;-82
2023/07/13 01:48:11;;;;;;;5.70;4.40;;;14.20;99.90;13.60;99995;;;;555090;255;24121;-80
2023/07/13 01:50:39;;;;;;;10.20;4.77;;;14.20;99.90;13.70;99998;;;;568503;250;24242;-83
2023/07/13 01:53:07;;;;;;;6.90;4.83;;;14.20;99.90;13.70;100010;;;;554915;255;24144;-80
2023/07/13 01:55:35;;;;;;;6.27;4.53;;;14.30;99.90;13.70;100005;;;;571181;246;24137;-80
2023/07/13 01:58:03;;;;;;;7.60;4.87;;;14.30;99.90;13.80;100009;;;;562263;251;24121;-80
2023/07/13 02:00:34;;;;;;;5.97;4.47;;;14.30;99.90;13.80;100006;;;;571214;251;24158;-82
2023/07/13 02:02:59;;;;;;;7.40;5.03;;;14.40;99.90;13.80;100016;;;;574199;244;24086;-80
2023/07/13 02:05:27;;;;;;;7.53;5.30;;;14.40;99.90;13.80;100010;;;;563781;251;24207;-81
2023/07/13 02:07:55;;;;;;;8.93;5.37;;;14.40;99.90;13.80;100010;;;;563085;250;24129;-79
2023/07/13 02:10:24;;;;;;;11.23;5.20;;;14.40;99.90;13.90;100014;;;;571843;246;24154;-80
2023/07/13 02:12:52;;;;;;;7.20;4.77;;;14.50;99.90;13.90;100012;;;;571663;250;24123;-80
2023/07/13 02:15:23;;;;;;;7.07;4.87;;;14.40;99.90;13.90;100014;;;;571386;251;24138;-80
2023/07/13 02:17:48;;;;;;;14.00;4.87;;;14.50;99.90;13.90;100020;;;;562698;251;24145;-80
2023/07/13 02:20:16;;;;;;;9.47;5.23;;;14.50;99.90;13.90;100016;;;;571214;251;24146;-81
2023/07/13 02:22:44;;;;;;;6.80;5.00;;;14.50;99.90;13.90;100016;;;;571185;251;24161;-82
2023/07/13 02:25:12;;;;;;;6.70;4.70;;;14.50;99.90;14.00;100011;;;;571276;247;24155;-83
2023/07/13 02:27:40;;;;;;;4.87;4.47;;;14.50;99.90;14.00;100002;;;;573324;243;24133;-81
2023/07/13 02:30:08;;;;;;;10.77;4.07;;;14.50;99.90;14.00;100004;;;;562403;251;24134;-80
2023/07/13 02:32:40;;;;;;;5.00;4.40;;;14.60;99.90;14.00;100011;;;;573306;249;24141;-80
2023/07/13 02:35:07;;;;;;;9.03;4.80;;;14.60;99.90;14.00;99999;;;;562197;251;24157;-80
2023/07/13 02:37:31;;;;;;;6.87;4.00;;;14.60;99.90;14.00;100010;;;;554575;255;24111;-80
2023/07/13 02:39:59;;;;;;;5.10;4.60;;;14.60;99.90;14.00;100006;;;;562857;250;24083;-81
2023/07/13 02:42:27;;;;;;;6.90;4.43;;;14.60;99.90;14.00;100005;;;;561724;251;24204;-80
2023/07/13 02:44:55;;;;;;;6.13;4.60;;;14.60;99.90;14.00;100002;;;;571190;246;24158;-81
2023/07/13 02:47:23;;;;;;;5.90;4.47;;;14.60;99.90;14.00;99995;;;;571088;251;24164;-79
2023/07/13 02:49:51;;;;;;;7.87;4.60;;;14.60;99.90;14.00;99995;;;;571122;251;24175;-80
2023/07/13 02:52:22;;;;;;;5.97;4.97;;;14.60;99.90;14.00;100002;;;;571079;251;24126;-79
2023/07/13 02:54:48;;;;;;;10.80;5.07;;;14.60;99.90;14.10;100001;;;;570814;251;24124;-80
2023/07/13 02:57:15;;;;;;;7.23;5.53;;;14.60;99.90;14.10;100005;;;;571106;251;24127;-79
2023/07/13 02:59:43;;;;;;;6.63;4.83;;;14.70;99.90;14.10;100005;;;;573065;247;24084;-81
2023/07/13 03:02:11;;;;;;;5.80;5.10;;;14.70;99.90;14.10;100004;;;;562223;251;24161;-80
2023/07/13 03:04:40;;;;;;;12.80;5.27;;;14.70;99.90;14.20;100004;;;;562637;251;24193;-81
2023/07/13 03:07:07;;;;;;;5.10;4.70;;;14.70;99.90;14.20;100000;;;;571053;247;24131;-79
2023/07/13 03:09:38;;;;;;;5.03;4.53;;;14.80;99.90;14.30;100001;;;;562665;251;24189;-79
2023/07/13 03:12:07;;;;;;;11.63;4.90;;;14.90;99.90;14.30;100000;;;;570730;251;24135;-81
2023/07/13 03:14:36;;;;;;;10.10;4.93;;;14.90;99.90;14.40;99990;;;;562158;251;24244;-79
2023/07/13 03:17:01;;;;;;;6.87;5.30;;;15.00;99.90;14.50;99985;;;;554127;254;24289;-79
2023/07/13 03:19:29;;;;;;;6.57;5.00;;;15.00;99.90;14.60;99980;;;;571593;249;24131;-79
2023/07/13 03:21:57;;;;;;;7.90;5.10;;;15.10;99.90;14.70;99985;;;;564110;250;24169;-79
2023/07/13 03:24:25;;;;;;;6.23;4.57;;;15.20;99.90;14.80;99992;;;;565732;250;24133;-80
2023/07/13 03:26:53;;;;;;;9.33;5.27;;;15.30;99.90;14.90;100002;;;;555775;251;24127;-79
2023/07/13 03:29:21;;;;;;;5.13;4.67;;;15.40;99.90;14.90;99999;;;;563387;251;24140;-79
2023/07/13 03:31:48;;;;;;;9.03;4.53;;;15.50;99.90;15.00;99999;;;;571273;250;24148;-80
2023/07/13 03:34:16;;;;;;;7.63;4.80;;;15.50;99.90;15.10;99999;;;;571711;247;24133;-79
2023/07/13 03:36:44;;;;;;;6.93;5.03;;;15.60;99.90;15.20;99995;;;;571920;251;24146;-81
2023/07/13 03:39:12;;;;;;;10.57;4.87;;;15.70;99.90;15.20;99986;;;;563326;251;24094;-81
2023/07/13 03:41:40;;;;;;;9.77;4.57;;;15.80;99.90;15.30;99986;;;;571980;251;24119;-81
2023/07/13 03:44:09;;;;;;;9.23;4.77;;;15.90;99.90;15.50;99985;;;;571635;251;24190;-81
2023/07/13 03:46:37;;;;;;;5.77;4.20;;;15.90;99.90;15.70;99989;;;;571503;247;24079;-81
2023/07/13 03:49:08;;;;;;;12.83;4.53;;;16.10;99.90;15.90;99989;;;;571579;250;24109;-80
2023/07/13 03:51:33;;;;;;;6.33;4.43;;;16.40;99.90;16.40;99993;;;;562838;251;24173;-81
2023/07/13 03:54:04;;;;;;;9.03;4.07;;;16.80;99.90;17.10;100002;;;;571581;251;24125;-82
2023/07/13 03:56:32;;;;;;;6.30;4.13;;;17.40;99.90;17.40;100001;;;;562669;251;24104;-82
2023/07/13 03:58:57;;;;;;;9.20;3.47;;;18.20;99.90;17.70;100003;;;;562217;251;24175;-82
2023/07/13 04:01:28;;;;;;;7.50;3.27;;;18.10;99.90;18.20;100008;;;;573104;244;24122;-81
2023/07/13 04:03:53;;;;;;;10.97;3.03;;;18.60;99.90;19.10;100008;;;;562111;251;24112;-81
2023/07/13 04:06:23;;;;;;;7.03;3.10;;;19.50;99.90;20.00;100008;;;;562982;251;23188;-81
2023/07/13 04:08:58;;;;;;;5.73;3.30;;;20.40;99.90;20.80;100011;;;;572054;251;26453;-83
2023/07/13 04:11:27;;;;;;;6.83;3.17;;;22.00;99.90;21.50;100019;;;;563593;251;24157;-83
2023/07/13 04:13:54;;;;;;;9.63;3.10;;;21.90;99.90;22.20;100019;;;;563138;251;26349;-81
2023/07/13 04:16:22;;;;;;;6.17;3.10;;;22.70;99.90;22.80;100022;;;;563089;251;24126;-82
2023/07/13 04:18:50;;;;;;;5.70;2.90;;;23.30;99.90;23.40;100022;;;;563133;251;24182;-82
2023/07/13 04:21:18;;;;;;;6.50;2.90;;;23.90;99.90;24.10;100022;;;;563187;251;23253;-83
2023/07/13 04:23:46;;;;;;;5.40;2.43;;;24.60;99.90;24.80;100023;;;;571572;248;23134;-82
2023/07/13 04:26:14;;;;;;;5.27;2.13;;;25.30;99.90;25.20;100032;;;;571218;251;23240;-83
2023/07/13 04:28:42;;;;;;;4.03;2.07;;;25.90;99.90;25.70;100026;;;;571252;247;23138;-84
2023/07/13 04:31:10;;;;;;;5.30;2.67;;;26.40;99.90;26.10;100032;;;;573920;245;24167;-82
2023/07/13 04:33:38;;;;;;;6.07;2.47;;;26.80;99.90;26.40;100030;;;;563564;251;23151;-83
2023/07/13 04:36:05;;;;;;;3.72;2.47;;;27.10;99.90;26.70;100033;;;;563773;251;24205;-83
2023/07/13 04:38:33;;;;;;;4.43;2.35;;;27.50;99.90;27.30;100046;;;;563555;251;23116;-83
2023/07/13 04:41:05;;;;;;;4.47;2.35;;;28.00;99.90;27.90;100038;;;;563566;251;23198;-82
2023/07/13 04:43:29;;;;;;;4.95;1.83;;;28.70;99.90;28.30;100036;;;;561628;251;24137;-81
2023/07/13 04:46:00;;;;;;;6.85;2.03;;;29.20;99.90;28.60;100030;;;;563528;251;23119;-80
2023/07/13 04:48:25;;;;;;;4.70;2.30;;;29.50;99.90;29.40;100037;;;;562496;251;23134;-80
2023/07/13 04:50:56;;;;;;;5.30;2.53;;;30.20;99.10;29.80;100038;;;;571795;251;24136;-83
2023/07/13 04:53:27;;;;;;;3.83;2.08;;;30.80;97.90;30.70;100043;;;;563305;251;23125;-82
2023/07/13 04:55:52;;;;;;;4.75;2.17;;;31.60;95.60;31.00;100048;;;;562372;251;23129;-82
2023/07/13 04:58:21;;;;;;;3.80;1.90;;;32.30;91.40;31.30;100053;;;;571398;251;24131;-82
2023/07/13 05:00:52;;;;;;;4.10;2.00;;;32.60;90.10;31.70;100055;;;;571697;247;23154;-81
2023/07/13 05:03:17;;;;;;;3.10;1.85;;;32.60;90.10;32.20;100053;;;;563061;251;23158;-82
2023/07/13 05:05:45;;;;;;;4.03;1.92;;;33.20;88.20;32.80;100059;;;;571209;251;24209;-81
2023/07/13 05:08:16;;;;;;;4.68;2.05;;;33.70;83.60;33.10;100054;;;;561908;251;23141;-82
2023/07/13 05:10:41;;;;;;;5.00;2.30;;;34.10;81.00;33.50;100048;;;;562494;251;23153;-82
2023/07/13 05:13:09;;;;;;;4.75;1.87;;;34.50;79.30;34.00;100056;;;;571344;247;23137;-82
2023/07/13 05:15:37;;;;;;;3.62;1.87;;;35.00;76.50;34.50;100056;;;;562838;251;23132;-82
2023/07/13 05:18:05;;;;;;;4.62;1.83;;;36.20;71.30;35.30;100069;;;;562809;251;24184;-84
2023/07/13 05:20:33;;;;;;;3.83;1.67;;;36.10;71.20;36.00;100062;;;;571523;251;23237;-83
2023/07/13 05:23:01;;;;;;;5.65;1.75;;;36.90;68.30;36.70;100076;;;;563011;251;23175;-86
2023/07/13 05:25:29;;;;;;;5.70;2.10;;;37.60;66.00;37.10;100083;;;;563265;251;23151;-83
2023/07/13 05:27:57;;;;;;;3.08;1.67;;;38.00;63.10;37.50;100093;;;;571703;250;24149;-82
2023/07/13 05:30:25;;;;;;;4.82;2.35;;;38.40;62.00;38.10;100087;;;;571510;251;23132;-83
2023/07/13 05:32:53;;;;;;;6.05;2.10;;;38.90;60.70;38.60;100100;;;;573813;248;23107;-83
2023/07/13 05:35:21;;;;;;;3.12;1.58;;;39.30;58.70;39.00;100105;;;;562655;251;23164;-82
2023/07/13 05:37:49;;;;;;;3.28;1.58;;;39.70;56.20;39.30;100109;;;;563128;251;23116;-84
2023/07/13 05:40:16;;;;;;;4.10;1.70;;;40.10;55.50;39.40;100113;;;;563357;251;23138;-84
2023/07/13 05:42:44;;;;;;;2.35;1.80;;;40.20;54.20;39.60;100108;;;;564366;250;23187;-84
2023/07/13 05:45:17;;;;;;;4.15;1.73;;;40.30;54.10;40.00;100119;;;;564845;250;23131;-83
2023/07/13 05:47:46;;;;;;;4.47;1.90;;;41.00;52.30;40.40;100128;;;;563060;251;23128;-83
2023/07/13 05:50:18;;;;;;;3.28;1.58;;;41.50;51.60;40.90;100127;;;;572679;251;23159;-84
2023/07/13 05:52:46;;;;;;;7.53;2.22;;;41.50;51.60;41.40;100133;;;;564141;251;23121;-84
2023/07/13 05:55:13;;;;;;;3.85;1.62;;;42.00;50.90;41.90;100132;;;;564031;251;23147;-84
2023/07/13 05:57:42;;;;;;;2.05;1.42;;;42.90;49.20;42.40;100143;;;;572350;246;24194;-84
2023/07/13 06:00:15;;;;;;;2.33;1.40;;;42.90;49.20;42.60;100134;;;;572088;251;23263;-84
2023/07/13 06:02:38;;;;;;;3.08;1.52;;;43.20;48.60;42.80;100142;;;;567552;249;23128;-84
2023/07/13 06:05:10;;;;;;;2.60;1.52;;;43.40;47.90;43.20;100138;;;;563079;251;23139;-85
2023/07/13 06:07:37;;;;;;;1.65;1.50;;;43.70;47.10;43.80;100142;;;;563727;251;23210;-84
2023/07/13 06:10:02;;;;;;;5.15;1.67;;;44.20;47.00;44.00;100149;;;;563870;251;23169;-85
2023/07/13 06:12:30;;;;;;;3.05;1.85;;;44.50;46.60;44.50;100154;;;;572632;247;23132;-86
2023/07/13 06:14:58;;;;;;;3.22;1.77;;;44.80;46.40;44.20;100158;;;;572818;251;23138;-86
2023/07/13 06:17:29;;;;;;;3.83;1.73;;;44.70;46.00;43.50;100163;;;;564064;251;23122;-83
2023/07/13 06:19:57;;;;;;;3.12;1.70;;;44.20;45.30;42.50;100164;;;;571335;247;23128;-84
2023/07/13 06:22:22;;;;;;;4.18;1.58;;;43.40;45.40;42.30;100169;;;;562401;251;23211;-84
2023/07/13 06:24:49;;;;;;;3.28;1.60;;;42.80;46.50;42.00;100173;;;;571175;246;23117;-84
2023/07/13 06:27:17;;;;;;;3.55;1.77;;;42.50;47.00;41.00;100173;;;;571220;251;23226;-84
2023/07/13 06:29:46;;;;;;;3.85;1.62;;;40.60;48.20;40.10;100180;;;;571221;246;23130;-82
2023/07/13 06:32:15;;;;;;;2.03;1.42;;;39.60;48.80;38.90;100183;;;;571131;246;23192;-83
2023/07/13 06:34:43;;;;;;;3.30;1.60;;;39.50;48.80;37.60;100180;;;;573187;244;23104;-83
2023/07/13 06:37:16;;;;;;;2.60;1.27;;;38.20;50.10;36.30;100184;;;;562403;251;23129;-83
2023/07/13 06:39:47;;;;;;;2.33;1.50;;;36.90;52.10;35.70;100172;;;;562271;251;23142;-82
2023/07/13 06:42:12;;;;;;;3.70;1.77;;;36.10;53.50;35.30;100182;;;;562529;251;23237;-83
2023/07/13 06:44:40;;;;;;;2.97;1.42;;;35.50;54.80;35.00;100183;;;;561115;251;23169;-83
2023/07/13 06:47:08;;;;;;;3.92;1.50;;;35.20;55.00;34.70;100177;;;;562799;251;23207;-83
2023/07/13 06:49:36;;;;;;;2.40;1.37;;;34.90;55.60;34.00;100177;;;;566237;251;35498;-83
2023/07/13 06:52:05;;;;;;;4.78;1.80;;;34.20;57.00;34.10;100177;;;;571153;247;23146;-82
2023/07/13 06:54:33;;;;;;;1.77;1.42;;;34.10;57.00;35.50;100173;;;;562396;250;23177;-82
2023/07/13 06:57:01;;;;;;;2.72;1.60;;;36.40;54.70;36.70;100181;;;;572636;250;23162;-83
2023/07/13 06:59:30;;;;;;;4.80;1.62;;;37.00;53.00;36.90;100184;;;;572053;250;24226;-83
2023/07/13 07:01:58;;;;;;;2.12;1.27;;;37.00;53.00;37.90;100180;;;;563301;251;23212;-82
2023/07/13 07:04:31;;;;;;;5.90;1.67;;;37.80;52.20;39.00;100193;;;;561771;251;23228;-84
2023/07/13 07:07:01;;;;;;;3.20;1.42;;;38.90;50.60;39.00;100200;;;;564052;254;23145;-83
2023/07/13 07:09:28;;;;;;;4.47;1.37;;;39.10;49.80;39.50;100191;;;;555319;254;24158;-82
2023/07/13 07:11:52;;;;;;;2.22;1.42;;;39.60;49.40;41.00;100190;;;;555371;255;24212;-83
2023/07/13 07:14:21;;;;;;;4.45;2.10;;;41.50;47.10;41.40;100188;;;;563320;251;23130;-84
2023/07/13 07:16:50;;;;;;;4.40;1.90;;;41.30;47.80;40.90;100188;;;;563435;251;24233;-83
2023/07/13 07:19:21;;;;;;;3.65;1.83;;;41.30;47.80;39.40;100189;;;;563852;251;23163;-83
2023/07/13 07:21:46;;;;;;;4.53;1.55;;;40.30;47.70;37.90;100190;;;;563578;251;23172;-83
2023/07/13 07:24:15;;;;;;;5.07;1.50;;;38.80;49.30;36.90;100195;;;;572040;246;23212;-83
2023/07/13 07:26:42;;;;;;;4.65;1.60;;;37.80;51.20;37.40;100197;;;;571981;247;23143;-83
2023/07/13 07:29:10;;;;;;;1.98;1.15;;;37.80;51.50;37.60;100184;;;;563551;251;23135;-84
2023/07/13 07:31:37;;;;;;;2.05;1.50;;;37.80;51.20;38.50;100195;;;;563477;251;23154;-83
2023/07/13 07:34:05;;;;;;;5.20;1.50;;;38.50;50.80;39.00;100191;;;;571948;251;23131;-84
2023/07/13 07:36:33;;;;;;;3.95;1.58;;;39.10;49.40;38.00;100185;;;;573424;244;23320;-85
2023/07/13 07:39:04;;;;;;;4.65;1.52;;;38.50;49.70;37.90;100186;;;;563639;249;24156;-81
2023/07/13 07:41:29;;;;;;;2.92;1.45;;;38.20;51.10;39.50;100195;;;;563099;251;23155;-83
2023/07/13 07:43:57;;;;;;;3.90;1.50;;;39.40;50.20;40.50;100190;;;;571795;251;23135;-84
2023/07/13 07:46:25;;;;;;;2.72;1.40;;;40.30;49.30;42.30;100202;;;;571901;251;23131;-84
2023/07/13 07:48:53;;;;;;;1.83;1.55;;;42.00;47.30;42.00;100202;;;;571521;247;23166;-83
2023/07/13 07:51:21;;;;;;;1.80;1.20;;;42.20;46.30;41.00;100206;;;;571824;246;23160;-85
2023/07/13 07:53:49;;;;;;;2.53;1.60;;;41.60;45.90;39.20;100212;;;;572065;247;23123;-83
2023/07/13 07:56:25;;;;;;;6.18;1.50;;;40.10;46.50;37.60;100207;;;;563463;251;23141;-82
2023/07/13 07:58:45;;;;;;;2.65;1.37;;;38.50;48.90;36.40;100213;;;;561605;251;23144;-83
2023/07/13 08:01:16;;;;;;;1.62;1.10;;;37.20;49.70;37.20;100213;;;;571324;247;23129;-81
2023/07/13 08:03:43;;;;;;;1.70;1.20;;;37.30;51.50;39.20;100215;;;;565003;250;23145;-82
2023/07/13 08:06:08;;;;;;;1.60;1.20;;;38.80;49.60;41.00;100219;;;;572327;249;23126;-84
2023/07/13 08:08:36;;;;;;;4.12;1.30;;;40.60;47.80;41.80;100222;;;;564365;251;23124;-81
2023/07/13 08:11:04;;;;;;;1.83;1.30;;;41.70;45.80;41.70;100220;;;;572854;246;23137;-83
2023/07/13 08:13:33;;;;;;;1.52;0.98;;;41.80;44.80;41.00;100219;;;;563278;251;23156;-83
2023/07/13 08:16:04;;;;;;;3.50;1.48;;;41.50;44.20;39.00;100220;;;;563711;251;24160;-83
2023/07/13 08:18:29;;;;;;;3.03;1.35;;;40.10;45.30;37.80;100222;;;;563872;251;23133;-83
2023/07/13 08:20:58;;;;;;;8.05;2.75;;;38.80;46.90;38.60;100221;;;;572557;247;23129;-82
2023/07/13 08:23:26;;;;;;;7.55;1.90;;;38.80;48.10;40.20;100211;;;;572487;251;23128;-81
2023/07/13 08:25:55;;;;;;;4.87;1.42;;;40.10;48.00;42.50;100222;;;;563922;251;23156;-83
2023/07/13 08:28:25;;;;;;;7.50;2.10;;;43.80;43.40;43.80;100219;;;;568260;247;35469;-83
2023/07/13 08:30:54;;;;;;;2.65;1.40;;;43.50;43.30;42.90;100226;;;;564011;251;23127;-83
2023/07/13 08:33:24;;;;;;;5.05;1.40;;;43.50;43.30;41.50;100230;;;;572502;251;23172;-83
2023/07/13 08:35:52;;;;;;;2.70;1.30;;;42.40;43.90;39.60;100228;;;;563518;251;23139;-84
2023/07/13 08:38:18;;;;;;;2.87;1.20;;;38.90;46.00;37.60;100224;;;;563334;251;23203;-82
2023/07/13 08:40:46;;;;;;;1.95;1.10;;;38.80;45.90;36.60;100232;;;;563389;251;23168;-84
2023/07/13 08:43:17;;;;;;;1.15;1.00;;;37.40;48.10;37.10;100232;;;;562689;251;23147;-82
2023/07/13 08:45:48;;;;;;;1.62;1.30;;;37.40;48.60;37.20;100232;;;;563870;247;23148;-83
2023/07/13 08:48:21;;;;;;;3.80;1.00;;;37.50;48.70;37.40;100235;;;;562370;251;23178;-84
2023/07/13 08:50:52;;;;;;;0.98;0.95;;;37.60;48.10;38.00;100232;;;;563028;251;23134;-83
2023/07/13 08:53:20;;;;;;;0.82;0.82;;;38.10;47.90;37.60;100228;;;;562661;251;23203;-81
2023/07/13 08:55:49;;;;;;;1.52;0.93;;;38.00;46.50;37.30;100227;;;;563454;251;23193;-82
2023/07/13 08:58:20;;;;;;;3.33;1.20;;;37.70;47.40;38.50;100224;;;;562947;251;23219;-82
2023/07/13 09:00:55;;;;;;;3.30;1.10;;;38.50;47.00;40.40;100225;;;;563026;251;23163;-84
2023/07/13 09:03:26;;;;;;;1.10;1.00;;;40.20;46.40;42.40;100220;;;;561593;251;24166;-83
2023/07/13 09:05:54;;;;;;;6.40;1.20;;;42.20;44.30;44.20;100215;;;;563068;251;23147;-83
2023/07/13 09:08:49;;;;;;;1.33;1.20;;;44.10;42.60;45.50;100222;;;;563310;251;23151;-83
2023/07/13 09:11:35;;;;;;;1.45;1.10;;;45.60;40.70;47.10;100213;;;;553832;250;23115;-83
2023/07/13 09:14:33;;;;;;;1.95;1.30;;;47.40;39.70;48.10;100213;;;;562848;251;23215;-85
2023/07/13 09:17:02;;;;;;;3.40;1.20;;;48.50;37.90;48.90;100209;;;;556036;252;23155;-83
2023/07/13 09:19:30;;;;;;;1.58;1.30;;;49.40;36.70;47.30;100211;;;;556844;254;24154;-80
2023/07/13 09:21:59;;;;;;;1.37;1.27;;;48.70;35.40;46.30;100203;;;;564127;251;23154;-82
2023/07/13 09:24:28;;;;;;;2.83;1.15;;;47.70;36.80;46.60;100202;;;;564299;251;23161;-83
2023/07/13 09:26:59;;;;;;;1.52;1.02;;;47.30;37.50;47.50;100202;;;;564037;251;23168;-82
2023/07/13 09:29:32;;;;;;;2.15;1.25;;;48.00;37.00;48.70;100205;;;;562125;251;23160;-83
2023/07/13 09:31:58;;;;;;;1.75;1.62;;;49.00;37.20;48.70;100209;;;;563683;251;23139;-83
2023/07/13 09:34:30;;;;;;;2.37;1.30;;;49.70;35.60;47.20;100202;;;;563616;251;23242;-82
2023/07/13 09:36:57;;;;;;;3.60;1.52;;;48.90;35.50;45.60;100200;;;;563136;251;23211;-82
2023/07/13 09:39:22;;;;;;;3.17;1.62;;;47.40;36.70;44.10;100206;;;;558236;251;35459;-82
2023/07/13 09:42:08;;;;;;;3.20;1.27;;;46.00;38.00;43.10;100192;;;;563552;251;23121;-82
2023/07/13 09:44:41;;;;;;;3.03;1.20;;;44.60;38.50;42.50;100198;;;;562022;251;23171;-82
2023/07/13 09:47:18;;;;;;;4.45;2.08;;;43.60;39.70;42.70;100198;;;;563801;251;24178;-82
2023/07/13 09:49:46;;;;;;;2.58;1.70;;;43.30;41.00;43.30;100200;;;;549418;251;23164;-84
2023/07/13 09:52:21;;;;;;;3.85;1.27;;;43.70;39.80;44.40;100207;;;;563338;251;23191;-82
2023/07/13 09:54:45;;;;;;;2.15;1.37;;;44.70;40.10;46.00;100203;;;;562753;248;23115;-82
2023/07/13 09:57:16;;;;;;;3.83;1.70;;;46.30;39.40;46.90;100206;;;;562979;251;23149;-80
2023/07/13 09:59:44;;;;;;;4.57;1.23;;;47.40;37.60;46.10;100215;;;;562638;247;23117;-82
2023/07/13 10:02:28;;;;;;;3.22;1.50;;;47.20;36.70;44.80;100210;;;;562171;251;23138;-83
2023/07/13 10:05:00;;;;;;;1.55;1.10;;;46.10;36.90;43.40;100211;;;;562563;251;24218;-82
2023/07/13 10:07:31;;;;;;;2.60;1.48;;;44.70;38.30;42.10;100208;;;;562535;251;23184;-83
2023/07/13 10:10:01;;;;;;;3.03;1.58;;;42.30;40.50;41.20;100203;;;;574132;244;24155;-82
2023/07/13 10:12:27;;;;;;;1.55;1.45;;;41.80;41.10;40.80;100207;;;;555600;253;23127;-82
2023/07/13 10:14:57;;;;;;;4.03;1.95;;;41.70;41.00;40.90;100209;;;;562865;251;23130;-81
2023/07/13 10:17:30;;;;;;;1.52;1.27;;;41.70;41.90;42.30;100211;;;;555666;252;24168;-81
2023/07/13 10:19:57;;;;;;;4.70;1.30;;;42.70;41.30;42.90;100208;;;;558813;249;46267;-81
2023/07/13 10:22:32;;;;;;;3.25;1.50;;;44.10;39.60;43.30;100214;;;;550517;255;35436;-83
2023/07/13 10:25:01;;;;;;;1.35;1.08;;;44.00;39.50;42.90;100212;;;;554247;251;23137;-83
2023/07/13 10:27:48;;;;;;;10.88;1.67;;;43.90;38.70;41.50;100229;;;;563786;251;23190;-81
2023/07/13 10:30:23;;;;;;;3.30;1.27;;;40.20;43.00;38.40;100250;;;;572781;249;23227;-81
2023/07/13 10:32:54;;;;;;;2.30;1.20;;;40.10;43.00;35.90;100260;;;;558795;251;35514;-80
2023/07/13 10:35:19;;;;;;;1.65;1.20;;;35.40;49.10;33.80;100265;;;;555203;254;23144;-82
2023/07/13 10:37:53;;;;;;;5.70;1.50;;;33.40;54.50;32.10;100267;;;;554215;253;23158;-80
2023/07/13 10:40:25;;;;;;;2.20;1.05;;;33.20;53.70;30.50;100268;;;;573618;248;23143;-80
2023/07/13 10:42:53;;;;;;;1.50;1.12;;;31.40;58.40;29.20;100276;;;;554356;253;23155;-79
2023/07/13 10:45:27;;;;;;;1.37;1.05;;;29.90;60.80;28.40;100268;;;;552665;254;23133;-79
2023/07/13 10:47:55;;;;;;;3.00;2.10;;;28.80;63.90;27.90;100261;;;;557916;251;35459;-80
2023/07/13 10:50:23;;;;;;;2.22;1.42;;;28.20;65.00;28.00;100250;;;;556203;252;23175;-79
2023/07/13 10:52:51;;;;;;;0.95;0.95;;;28.10;65.00;28.30;100251;;;;561823;251;24285;-81
2023/07/13 10:55:33;;;;;;;2.35;1.23;;;28.20;64.80;28.50;100252;;;;561705;251;23143;-79
2023/07/13 10:58:13;;;;;;;4.68;1.30;;;28.40;65.90;28.60;100250;;;;562470;251;23169;-81
2023/07/13 11:00:50;;;;;;;2.70;1.35;;;28.60;66.00;28.90;100260;;;;560557;251;23129;-79
2023/07/13 11:03:17;;;;;;;1.58;1.12;;;28.90;64.80;29.10;100262;;;;562171;251;24136;-81
2023/07/13 11:05:45;;;;;;;1.20;1.10;;;29.10;61.60;29.10;100258;;;;561352;251;23169;-83
2023/07/13 11:08:22;;;;;;;3.78;1.35;;;29.20;60.70;29.10;100261;;;;562532;247;24152;-83
2023/07/13 11:10:50;;;;;;;0.82;0.80;;;29.20;60.80;29.00;100259;;;;565220;248;24114;-81
2023/07/13 11:13:47;;;;;;;1.20;1.10;;;29.20;60.70;28.90;100259;;;;560996;251;23152;-78
2023/07/13 11:16:20;;;;;;;2.05;1.45;;;29.10;61.80;28.90;100259;;;;554558;255;23201;-81
2023/07/13 11:19:06;;;;;;;2.15;1.25;;;29.20;61.90;28.50;100252;;;;573409;250;23168;-81